Time;durP1;ratioP1;P1;durP2;ratioP2;P2;SDS_P1;SDS_P2;PMS_P1;PMS_P2;Temp;Humidity;BMP_temperature;BMP_pressure;BME280_temperature;BME280_humidity;BME280_pressure;Samples;Min_cycle;Max_cycle;Signal;HPM_P1;HPM_P2
2022/10/15 00:01:50;;;;;;;;;;;18.90;99.90;;;;;;5094419;28;19908;-10
2022/10/15 00:04:16;;;;;;;;;;;18.90;99.90;;;;;;5094308;28;19955;-10
2022/10/15 00:06:41;;;;;;;;;;;18.90;99.90;;;;;;5094889;28;19935;-11
2022/10/15 00:09:07;;;;;;;;;;;18.80;99.90;;;;;;5094817;28;19969;-10
2022/10/15 00:11:33;;;;;;;;;;;18.90;99.90;;;;;;5095210;28;19908;-11
2022/10/15 00:13:59;;;;;;;;;;;18.80;99.90;;;;;;5095055;28;20233;-11
2022/10/15 00:16:25;;;;;;;;;;;18.80;99.90;;;;;;5094401;28;19915;-11
2022/10/15 00:18:53;;;;;;;;;;;18.80;99.90;;;;;;5092503;28;19985;-10
2022/10/15 00:21:20;;;;;;;;;;;18.80;99.90;;;;;;5092042;28;20304;-10
2022/10/15 00:23:46;;;;;;;;;;;18.80;99.90;;;;;;5093052;28;19934;-10
2022/10/15 00:26:13;;;;;;;;;;;18.80;99.90;;;;;;5093326;28;19942;-9
2022/10/15 00:28:39;;;;;;;;;;;18.80;99.90;;;;;;5092396;28;19908;-12
2022/10/15 00:31:06;;;;;;;;;;;18.80;99.90;;;;;;5094670;28;20184;-11
2022/10/15 00:33:32;;;;;;;;;;;18.80;99.90;;;;;;5094160;28;19915;-11
2022/10/15 00:35:59;;;;;;;;;;;18.80;99.90;;;;;;5094722;28;19912;-10
2022/10/15 00:38:25;;;;;;;;;;;18.80;99.90;;;;;;5094499;28;20014;-10
2022/10/15 00:40:50;;;;;;;;;;;18.80;99.90;;;;;;5095155;28;20011;-11
2022/10/15 00:43:16;;;;;;;;;;;18.80;99.90;;;;;;5095368;28;19908;-10
2022/10/15 00:45:41;;;;;;;;;;;18.80;99.90;;;;;;5094302;28;19908;-10
2022/10/15 00:48:07;;;;;;;;;;;18.80;99.90;;;;;;5095308;28;19943;-11
2022/10/15 00:50:33;;;;;;;;;;;18.80;99.90;;;;;;5095385;28;20284;-10
2022/10/15 00:53:04;;;;;;;;;;;18.80;99.90;;;;;;5095222;28;19908;-10
2022/10/15 00:55:31;;;;;;;;;;;18.80;99.90;;;;;;5097306;28;20230;-9
2022/10/15 00:58:00;;;;;;;;;;;18.80;99.90;;;;;;5115040;28;19920;-10
2022/10/15 01:00:26;;;;;;;;;;;18.80;99.90;;;;;;5098202;28;19999;-11
2022/10/15 01:02:52;;;;;;;;;;;18.80;99.90;;;;;;5096646;28;19912;-10
2022/10/15 01:05:18;;;;;;;;;;;18.80;99.90;;;;;;5094534;28;20261;-10
2022/10/15 01:07:43;;;;;;;;;;;18.80;99.90;;;;;;5094620;28;20204;-11
2022/10/15 01:10:10;;;;;;;;;;;18.70;99.90;;;;;;5095104;28;19908;-10
2022/10/15 01:12:47;;;;;;;;;;;18.80;99.90;;;;;;5094992;28;19908;-11
2022/10/15 01:15:25;;;;;;;;;;;18.80;99.90;;;;;;5095387;28;19961;-11
2022/10/15 01:17:54;;;;;;;;;;;18.70;99.90;;;;;;5095657;28;19978;-11
2022/10/15 01:20:38;;;;;;;;;;;18.80;99.90;;;;;;5094820;28;19908;-10
2022/10/15 01:23:21;;;;;;;;;;;18.70;99.90;;;;;;5093577;28;20411;-11
2022/10/15 01:25:47;;;;;;;;;;;18.70;99.90;;;;;;5095105;28;19908;-10
2022/10/15 01:28:16;;;;;;;;;;;18.70;99.90;;;;;;5096505;28;19941;-11
2022/10/15 01:30:44;;;;;;;;;;;18.70;99.90;;;;;;5096871;28;19909;-10
2022/10/15 01:33:16;;;;;;;;;;;18.70;99.90;;;;;;5096852;28;19912;-11
2022/10/15 01:35:42;;;;;;;;;;;18.70;99.90;;;;;;5095889;28;19912;-10
2022/10/15 01:38:07;;;;;;;;;;;18.70;99.90;;;;;;5097045;28;19939;-10
2022/10/15 01:40:37;;;;;;;;;;;18.70;99.90;;;;;;5097654;28;20276;-10
2022/10/15 01:43:03;;;;;;;;;;;18.70;99.90;;;;;;5098952;28;19914;-11
2022/10/15 01:45:55;;;;;;;;;;;18.70;99.90;;;;;;5098561;28;19908;-11
2022/10/15 01:48:21;;;;;;;;;;;18.70;99.90;;;;;;5094825;28;20005;-11
2022/10/15 01:50:49;;;;;;;;;;;18.70;99.90;;;;;;5096311;28;20286;-10
2022/10/15 01:53:18;;;;;;;;;;;18.70;99.90;;;;;;5096732;28;20265;-11
2022/10/15 01:55:44;;;;;;;;;;;18.70;99.90;;;;;;5110761;28;20010;-11
2022/10/15 01:58:10;;;;;;;;;;;18.70;99.90;;;;;;5094810;28;20072;-11
2022/10/15 02:00:37;;;;;;;;;;;18.70;99.90;;;;;;5097626;28;20060;-10
2022/10/15 02:03:03;;;;;;;;;;;18.70;99.90;;;;;;5097529;28;20016;-12
2022/10/15 02:05:31;;;;;;;;;;;18.70;99.90;;;;;;5111159;28;19982;-10
2022/10/15 02:08:00;;;;;;;;;;;18.70;99.90;;;;;;5096552;28;19952;-11
2022/10/15 02:10:40;;;;;;;;;;;18.70;99.90;;;;;;5097710;28;19918;-11
2022/10/15 02:13:05;;;;;;;;;;;18.70;99.90;;;;;;5097022;28;19912;-11
2022/10/15 02:15:35;;;;;;;;;;;18.70;99.90;;;;;;5095994;28;19919;-10
2022/10/15 02:18:16;;;;;;;;;;;18.70;99.90;;;;;;5095058;28;19923;-10
2022/10/15 02:20:56;;;;;;;;;;;18.70;99.90;;;;;;5095251;28;20408;-11
2022/10/15 02:23:42;;;;;;;;;;;18.70;99.90;;;;;;5096622;28;20238;-10
2022/10/15 02:26:09;;;;;;;;;;;18.70;99.90;;;;;;5095599;28;20049;-9
2022/10/15 02:28:37;;;;;;;;;;;18.70;99.90;;;;;;5095949;28;19908;-10
2022/10/15 02:31:04;;;;;;;;;;;18.70;99.90;;;;;;5095432;28;19947;-10
2022/10/15 02:33:31;;;;;;;;;;;18.70;99.90;;;;;;5095259;28;20256;-10
2022/10/15 02:35:57;;;;;;;;;;;18.70;99.90;;;;;;5097644;28;19926;-10
2022/10/15 02:38:23;;;;;;;;;;;18.70;99.90;;;;;;5094935;28;19920;-11
2022/10/15 02:40:49;;;;;;;;;;;18.70;99.90;;;;;;5093328;28;20006;-10
2022/10/15 02:43:17;;;;;;;;;;;18.70;99.90;;;;;;5095061;28;19948;-11
2022/10/15 02:45:43;;;;;;;;;;;18.70;99.90;;;;;;5093510;28;19919;-10
2022/10/15 02:48:09;;;;;;;;;;;18.70;99.90;;;;;;5095603;28;19908;-10
2022/10/15 02:50:35;;;;;;;;;;;18.70;99.90;;;;;;5095858;28;20431;-10
2022/10/15 02:53:01;;;;;;;;;;;18.60;99.90;;;;;;5096475;28;19908;-10
2022/10/15 02:55:26;;;;;;;;;;;18.60;99.90;;;;;;5094514;28;19950;-10
2022/10/15 02:57:52;;;;;;;;;;;18.60;99.90;;;;;;5095929;28;20277;-11
2022/10/15 03:00:18;;;;;;;;;;;18.60;99.90;;;;;;5095254;28;20322;-10
2022/10/15 03:02:44;;;;;;;;;;;18.60;99.90;;;;;;5096279;28;19918;-10
2022/10/15 03:05:09;;;;;;;;;;;18.60;99.90;;;;;;5095918;28;19923;-11
2022/10/15 03:07:35;;;;;;;;;;;18.60;99.90;;;;;;5096478;28;20311;-10
2022/10/15 03:10:00;;;;;;;;;;;18.60;99.90;;;;;;5096089;28;19915;-10
2022/10/15 03:12:26;;;;;;;;;;;18.60;99.90;;;;;;5096746;28;19915;-9
2022/10/15 03:14:52;;;;;;;;;;;18.60;99.90;;;;;;5111578;28;19908;-11
2022/10/15 03:17:18;;;;;;;;;;;18.60;99.90;;;;;;5093475;28;20144;-10
2022/10/15 03:19:43;;;;;;;;;;;18.60;99.90;;;;;;5095585;28;19912;-9
2022/10/15 03:22:09;;;;;;;;;;;18.60;99.90;;;;;;5095620;28;19940;-10
2022/10/15 03:24:34;;;;;;;;;;;18.60;99.90;;;;;;5091573;28;19951;-10
2022/10/15 03:27:00;;;;;;;;;;;18.60;99.90;;;;;;5092043;28;19912;-11
2022/10/15 03:29:26;;;;;;;;;;;18.60;99.90;;;;;;5091885;28;19908;-10
2022/10/15 03:31:51;;;;;;;;;;;18.60;99.90;;;;;;5092512;28;20166;-10
2022/10/15 03:34:17;;;;;;;;;;;18.60;99.90;;;;;;5091740;28;19916;-10
2022/10/15 03:36:44;;;;;;;;;;;18.60;99.90;;;;;;5091417;28;20220;-10
2022/10/15 03:39:10;;;;;;;;;;;18.60;99.90;;;;;;5093223;28;19908;-11
2022/10/15 03:41:36;;;;;;;;;;;18.60;99.90;;;;;;5093085;28;20002;-10
2022/10/15 03:44:02;;;;;;;;;;;18.60;99.90;;;;;;5093338;28;20308;-11
2022/10/15 03:46:28;;;;;;;;;;;18.60;99.90;;;;;;5089867;28;19919;-11
2022/10/15 03:48:54;;;;;;;;;;;18.60;99.90;;;;;;5091286;28;19908;-10
2022/10/15 03:51:19;;;;;;;;;;;18.60;99.90;;;;;;5089826;28;19935;-11
2022/10/15 03:53:45;;;;;;;;;;;18.60;99.90;;;;;;5089608;28;20324;-10
2022/10/15 03:56:10;;;;;;;;;;;18.60;99.90;;;;;;5091359;28;20010;-12
2022/10/15 03:58:36;;;;;;;;;;;18.60;99.90;;;;;;5090648;28;19969;-11
2022/10/15 04:01:06;;;;;;;;;;;18.60;99.90;;;;;;5093028;28;19943;-11
2022/10/15 04:03:32;;;;;;;;;;;18.50;99.90;;;;;;5094138;28;19931;-10
2022/10/15 04:05:58;;;;;;;;;;;18.60;99.90;;;;;;5093582;28;20277;-11
2022/10/15 04:08:23;;;;;;;;;;;18.60;99.90;;;;;;5092325;28;19908;-9
2022/10/15 04:10:49;;;;;;;;;;;18.50;99.90;;;;;;5090098;28;19916;-10
2022/10/15 04:13:15;;;;;;;;;;;18.50;99.90;;;;;;5092846;28;20265;-11
2022/10/15 04:15:41;;;;;;;;;;;18.50;99.90;;;;;;5093564;28;19908;-10
2022/10/15 04:18:06;;;;;;;;;;;18.50;99.90;;;;;;5108894;28;19912;-11
2022/10/15 04:20:32;;;;;;;;;;;18.50;99.90;;;;;;5091971;28;20197;-11
2022/10/15 04:22:57;;;;;;;;;;;18.50;99.90;;;;;;5092204;28;19908;-11
2022/10/15 04:25:23;;;;;;;;;;;18.50;99.90;;;;;;5094116;28;19908;-11
2022/10/15 04:27:49;;;;;;;;;;;18.50;99.90;;;;;;5095144;28;20177;-11
2022/10/15 04:30:14;;;;;;;;;;;18.50;99.90;;;;;;5095023;28;19919;-10
2022/10/15 04:32:40;;;;;;;;;;;18.50;99.90;;;;;;5095040;28;20022;-11
2022/10/15 04:35:05;;;;;;;;;;;18.50;99.90;;;;;;5093570;28;19915;-12
2022/10/15 04:37:35;;;;;;;;;;;18.50;99.90;;;;;;5094485;28;19912;-10
2022/10/15 04:40:03;;;;;;;;;;;18.50;99.90;;;;;;5091850;28;20472;-11
2022/10/15 04:42:29;;;;;;;;;;;18.50;99.90;;;;;;5092579;28;19915;-10
2022/10/15 04:44:55;;;;;;;;;;;18.50;99.90;;;;;;5091701;28;19973;-11
2022/10/15 04:47:21;;;;;;;;;;;18.50;99.90;;;;;;5092107;28;19908;-10
2022/10/15 04:49:46;;;;;;;;;;;18.50;99.90;;;;;;5091409;28;19957;-11
2022/10/15 04:52:12;;;;;;;;;;;18.50;99.90;;;;;;5089222;28;19908;-10
2022/10/15 04:54:37;;;;;;;;;;;18.50;99.90;;;;;;5089476;28;19919;-11
2022/10/15 04:57:03;;;;;;;;;;;18.50;99.90;;;;;;5087861;28;19920;-10
2022/10/15 04:59:29;;;;;;;;;;;18.50;99.90;;;;;;5087922;28;20167;-10
2022/10/15 05:01:54;;;;;;;;;;;18.40;99.90;;;;;;5090517;28;20269;-9
2022/10/15 05:04:20;;;;;;;;;;;18.50;99.90;;;;;;5091798;28;20007;-10
2022/10/15 05:06:46;;;;;;;;;;;18.50;99.90;;;;;;5091915;28;19908;-11
2022/10/15 05:09:11;;;;;;;;;;;18.40;99.90;;;;;;5092114;28;19943;-11
2022/10/15 05:11:37;;;;;;;;;;;18.40;99.90;;;;;;5091139;28;20007;-11
2022/10/15 05:14:03;;;;;;;;;;;18.40;99.90;;;;;;5092154;28;20030;-11
2022/10/15 05:16:29;;;;;;;;;;;18.40;99.90;;;;;;5091208;28;19973;-10
2022/10/15 05:18:56;;;;;;;;;;;18.40;99.90;;;;;;5092206;28;19969;-9
2022/10/15 05:21:25;;;;;;;;;;;18.40;99.90;;;;;;5092358;28;19919;-10
2022/10/15 05:23:50;;;;;;;;;;;18.40;99.90;;;;;;5092083;28;20019;-11
2022/10/15 05:26:18;;;;;;;;;;;18.40;99.90;;;;;;5090296;28;20275;-10
2022/10/15 05:28:43;;;;;;;;;;;18.40;99.90;;;;;;5106872;28;20248;-10
2022/10/15 05:31:10;;;;;;;;;;;18.40;99.90;;;;;;5107195;28;20262;-11
2022/10/15 05:33:36;;;;;;;;;;;18.40;99.90;;;;;;5091655;28;19912;-11
2022/10/15 05:36:11;;;;;;;;;;;18.40;99.90;;;;;;5090353;28;19919;-9
2022/10/15 05:38:37;;;;;;;;;;;18.40;99.90;;;;;;5091131;28;19912;-11
2022/10/15 05:41:03;;;;;;;;;;;18.40;99.90;;;;;;5111176;28;19912;-11
2022/10/15 05:43:29;;;;;;;;;;;18.40;99.90;;;;;;5095658;28;19947;-10
2022/10/15 05:45:55;;;;;;;;;;;18.40;99.90;;;;;;5096528;28;20006;-10
2022/10/15 05:48:21;;;;;;;;;;;18.40;99.90;;;;;;5095471;28;20033;-11
2022/10/15 05:50:46;;;;;;;;;;;18.40;99.90;;;;;;5094576;28;19919;-10
2022/10/15 05:53:12;;;;;;;;;;;18.40;99.90;;;;;;5096272;28;20380;-10
2022/10/15 05:55:37;;;;;;;;;;;18.40;99.90;;;;;;5095851;28;19923;-10
2022/10/15 05:58:03;;;;;;;;;;;18.40;99.90;;;;;;5093961;28;19924;-10
2022/10/15 06:00:29;;;;;;;;;;;18.40;99.90;;;;;;5094834;28;19981;-9
2022/10/15 06:03:01;;;;;;;;;;;18.40;99.90;;;;;;5094921;28;20002;-11
2022/10/15 06:05:29;;;;;;;;;;;18.40;99.90;;;;;;5094159;28;19909;-10
2022/10/15 06:07:57;;;;;;;;;;;18.40;99.90;;;;;;5092681;28;19907;-10
2022/10/15 06:10:23;;;;;;;;;;;18.40;99.90;;;;;;5094211;28;20147;-10
2022/10/15 06:12:49;;;;;;;;;;;18.40;99.90;;;;;;5092676;28;20204;-11
2022/10/15 06:15:15;;;;;;;;;;;18.40;99.90;;;;;;5093029;28;20289;-11
2022/10/15 06:17:41;;;;;;;;;;;18.40;99.90;;;;;;5093993;28;19974;-11
2022/10/15 06:20:06;;;;;;;;;;;18.40;99.90;;;;;;5095973;28;19946;-9
2022/10/15 06:22:33;;;;;;;;;;;18.40;99.90;;;;;;5095658;28;19909;-10
2022/10/15 06:24:58;;;;;;;;;;;18.40;99.90;;;;;;5096228;28;19908;-11
2022/10/15 06:27:24;;;;;;;;;;;18.40;99.90;;;;;;5096393;28;19915;-10
2022/10/15 06:29:50;;;;;;;;;;;18.40;99.90;;;;;;5097552;28;20064;-9
2022/10/15 06:32:15;;;;;;;;;;;18.40;99.90;;;;;;5096345;28;19927;-9
2022/10/15 06:34:41;;;;;;;;;;;18.40;99.90;;;;;;5095564;28;19908;-11
2022/10/15 06:37:06;;;;;;;;;;;18.40;99.90;;;;;;5093298;28;20081;-10
2022/10/15 06:39:32;;;;;;;;;;;18.50;99.90;;;;;;5094972;28;20178;-10
2022/10/15 06:41:58;;;;;;;;;;;18.50;99.90;;;;;;5094406;28;19908;-10
2022/10/15 06:44:23;;;;;;;;;;;18.50;99.90;;;;;;5096517;28;20006;-10
2022/10/15 06:46:49;;;;;;;;;;;18.50;99.90;;;;;;5094807;28;20022;-10
2022/10/15 06:49:15;;;;;;;;;;;18.50;99.90;;;;;;5095709;28;19919;-11
2022/10/15 06:51:40;;;;;;;;;;;18.50;99.90;;;;;;5094508;28;19908;-10
2022/10/15 06:54:06;;;;;;;;;;;18.50;99.90;;;;;;5094652;28;19972;-10
2022/10/15 06:56:31;;;;;;;;;;;18.50;99.90;;;;;;5094456;28;19908;-10
2022/10/15 06:58:57;;;;;;;;;;;18.50;99.90;;;;;;5109322;28;19912;-10
2022/10/15 07:01:26;;;;;;;;;;;18.60;99.90;;;;;;5094508;28;19909;-10
2022/10/15 07:03:51;;;;;;;;;;;18.60;99.90;;;;;;5093361;28;20296;-11
2022/10/15 07:06:17;;;;;;;;;;;18.60;99.90;;;;;;5108833;28;19908;-11
2022/10/15 07:08:44;;;;;;;;;;;18.60;99.90;;;;;;5093200;28;20006;-10
2022/10/15 07:11:09;;;;;;;;;;;18.70;99.90;;;;;;5092621;28;20185;-10
2022/10/15 07:13:35;;;;;;;;;;;18.70;99.90;;;;;;5092947;28;19908;-11
2022/10/15 07:16:04;;;;;;;;;;;18.80;99.90;;;;;;5090500;28;19908;-11
2022/10/15 07:18:33;;;;;;;;;;;18.90;99.90;;;;;;5090478;28;19911;-10
2022/10/15 07:20:58;;;;;;;;;;;19.40;99.90;;;;;;5091418;28;19908;-10
2022/10/15 07:23:24;;;;;;;;;;;20.10;99.90;;;;;;5092314;28;20208;-10
2022/10/15 07:25:49;;;;;;;;;;;20.90;98.70;;;;;;5091260;28;20002;-10
2022/10/15 07:28:18;;;;;;;;;;;21.30;97.00;;;;;;5091840;28;20308;-11
2022/10/15 07:30:44;;;;;;;;;;;21.30;96.50;;;;;;5090484;28;19912;-11
2022/10/15 07:33:09;;;;;;;;;;;21.40;96.20;;;;;;5090508;28;20296;-10
2022/10/15 07:35:36;;;;;;;;;;;21.70;95.80;;;;;;5090585;28;20253;-10
2022/10/15 07:38:02;;;;;;;;;;;21.90;94.70;;;;;;5092022;28;19912;-10
2022/10/15 07:40:27;;;;;;;;;;;21.50;95.30;;;;;;5090927;28;19915;-10
2022/10/15 07:42:56;;;;;;;;;;;21.00;96.60;;;;;;5092188;28;20209;-10
2022/10/15 07:45:23;;;;;;;;;;;20.70;97.40;;;;;;5091905;28;19931;-10
2022/10/15 07:47:49;;;;;;;;;;;20.50;98.20;;;;;;5090695;28;19908;-11
2022/10/15 07:50:18;;;;;;;;;;;20.50;98.50;;;;;;5088314;28;19912;-11
2022/10/15 07:52:44;;;;;;;;;;;20.30;98.80;;;;;;5088976;28;19907;-11
2022/10/15 07:55:10;;;;;;;;;;;20.20;99.30;;;;;;5090711;28;19923;-11
2022/10/15 07:57:35;;;;;;;;;;;20.00;99.80;;;;;;5089544;28;20325;-11
2022/10/15 08:00:01;;;;;;;;;;;19.90;99.90;;;;;;5089081;28;19919;-10
2022/10/15 08:02:27;;;;;;;;;;;19.80;99.90;;;;;;5089828;28;19912;-11
2022/10/15 08:04:52;;;;;;;;;;;19.80;99.90;;;;;;5087569;28;19919;-11
2022/10/15 08:07:18;;;;;;;;;;;19.70;99.90;;;;;;5090190;28;19908;-10
2022/10/15 08:09:43;;;;;;;;;;;19.70;99.90;;;;;;5088480;28;19940;-10
2022/10/15 08:12:09;;;;;;;;;;;19.70;99.90;;;;;;5089074;28;20026;-11
2022/10/15 08:14:35;;;;;;;;;;;19.70;99.90;;;;;;5088756;28;20286;-11
2022/10/15 08:17:01;;;;;;;;;;;19.70;99.90;;;;;;5089173;28;20276;-11
2022/10/15 08:19:27;;;;;;;;;;;19.60;99.90;;;;;;5086498;28;19908;-10
2022/10/15 08:21:53;;;;;;;;;;;19.60;99.90;;;;;;5086120;28;19918;-11
2022/10/15 08:24:18;;;;;;;;;;;19.60;99.90;;;;;;5084764;28;19908;-11
2022/10/15 08:26:45;;;;;;;;;;;19.60;99.90;;;;;;5087956;28;19908;-9
2022/10/15 08:29:10;;;;;;;;;;;19.70;99.90;;;;;;5087350;28;19943;-11
2022/10/15 08:31:36;;;;;;;;;;;19.70;99.90;;;;;;5087692;28;20311;-11
2022/10/15 08:34:02;;;;;;;;;;;19.70;99.90;;;;;;5086482;28;19908;-10
2022/10/15 08:36:27;;;;;;;;;;;19.90;99.90;;;;;;5086610;28;19916;-11
2022/10/15 08:38:53;;;;;;;;;;;20.10;99.90;;;;;;5087131;28;19954;-11
2022/10/15 08:41:28;;;;;;;;;;;20.50;99.90;;;;;;5087014;28;20136;-11
2022/10/15 08:43:53;;;;;;;;;;;22.20;98.30;;;;;;5085270;28;19919;-11
2022/10/15 08:46:45;;;;;;;;;;;24.00;93.50;;;;;;5103445;28;19982;-11
2022/10/15 08:49:31;;;;;;;;;;;25.10;88.40;;;;;;5085712;28;19920;-11
2022/10/15 08:52:02;;;;;;;;;;;26.10;80.40;;;;;;5082664;28;19908;-11
2022/10/15 08:54:29;;;;;;;;;;;26.60;74.80;;;;;;5087658;28;19908;-10
2022/10/15 08:57:06;;;;;;;;;;;27.20;71.30;;;;;;5086981;28;20224;-11
2022/10/15 08:59:38;;;;;;;;;;;27.50;68.50;;;;;;5089220;28;19916;-11
2022/10/15 09:02:15;;;;;;;;;;;27.90;66.40;;;;;;5088478;28;20171;-12
2022/10/15 09:04:41;;;;;;;;;;;28.20;64.90;;;;;;5086688;28;19919;-11
2022/10/15 09:07:12;;;;;;;;;;;28.50;62.90;;;;;;5087368;28;19908;-11
2022/10/15 09:09:46;;;;;;;;;;;28.70;61.80;;;;;;5086920;28;19908;-11
2022/10/15 09:12:30;;;;;;;;;;;28.20;61.20;;;;;;5087764;28;19919;-11
2022/10/15 09:14:57;;;;;;;;;;;28.20;61.40;;;;;;5090783;28;19908;-11
2022/10/15 09:17:24;;;;;;;;;;;27.60;63.50;;;;;;5091463;28;19912;-12
2022/10/15 09:19:52;;;;;;;;;;;27.50;62.50;;;;;;5095759;28;19923;-11
2022/10/15 09:22:21;;;;;;;;;;;26.80;64.60;;;;;;5100039;28;19943;-11
2022/10/15 09:24:46;;;;;;;;;;;27.70;63.80;;;;;;5098917;28;19914;-11
2022/10/15 09:27:33;;;;;;;;;;;26.80;63.70;;;;;;5091760;28;19907;-11
2022/10/15 09:30:08;;;;;;;;;;;25.70;67.90;;;;;;5089859;28;19908;-11
2022/10/15 09:32:36;;;;;;;;;;;24.60;74.70;;;;;;5089963;28;19954;-11
2022/10/15 09:35:11;;;;;;;;;;;24.00;80.90;;;;;;5090612;28;19908;-12
2022/10/15 09:37:50;;;;;;;;;;;23.80;83.10;;;;;;5088011;28;19912;-11
2022/10/15 09:40:19;;;;;;;;;;;23.60;85.00;;;;;;5089470;28;20209;-11
2022/10/15 09:42:45;;;;;;;;;;;23.40;87.00;;;;;;5088457;28;19927;-11
2022/10/15 09:45:12;;;;;;;;;;;23.20;88.90;;;;;;5090378;28;19912;-11
2022/10/15 09:47:39;;;;;;;;;;;23.10;90.40;;;;;;5089093;28;19912;-11
2022/10/15 09:50:06;;;;;;;;;;;23.00;90.90;;;;;;5088645;28;19908;-11
2022/10/15 09:52:31;;;;;;;;;;;22.90;91.20;;;;;;5088605;28;19921;-12
2022/10/15 09:55:19;;;;;;;;;;;22.70;91.60;;;;;;5091539;28;19987;-12
2022/10/15 09:57:47;;;;;;;;;;;22.60;92.00;;;;;;5089262;28;19916;-11
2022/10/15 10:00:14;;;;;;;;;;;22.60;92.20;;;;;;5089385;28;19989;-11
2022/10/15 10:02:39;;;;;;;;;;;22.60;92.20;;;;;;5089883;28;20220;-11
2022/10/15 10:05:32;;;;;;;;;;;22.60;92.20;;;;;;5091720;28;20284;-12
2022/10/15 10:08:08;;;;;;;;;;;22.50;92.40;;;;;;5089974;28;19908;-12
2022/10/15 10:10:34;;;;;;;;;;;22.30;93.10;;;;;;5090306;28;20048;-11
2022/10/15 10:13:00;;;;;;;;;;;22.20;93.60;;;;;;5089604;28;19908;-11
2022/10/15 10:15:25;;;;;;;;;;;22.00;94.10;;;;;;5089705;28;20292;-10
2022/10/15 10:17:52;;;;;;;;;;;21.80;94.70;;;;;;5087392;28;20313;-10
2022/10/15 10:20:19;;;;;;;;;;;21.70;95.30;;;;;;5086811;28;19908;-11
2022/10/15 10:22:45;;;;;;;;;;;21.80;95.40;;;;;;5087885;28;19917;-10
2022/10/15 10:25:37;;;;;;;;;;;21.90;95.10;;;;;;5088217;28;20155;-10
2022/10/15 10:28:14;;;;;;;;;;;21.90;95.20;;;;;;5084835;28;19916;-11
2022/10/15 10:30:48;;;;;;;;;;;21.90;95.50;;;;;;5088767;28;20050;-12
2022/10/15 10:33:14;;;;;;;;;;;22.00;95.50;;;;;;5087556;28;19947;-11
2022/10/15 10:35:44;;;;;;;;;;;22.10;95.60;;;;;;5085622;28;20162;-11
2022/10/15 10:38:21;;;;;;;;;;;22.10;95.30;;;;;;5084116;28;20250;-11
2022/10/15 10:40:54;;;;;;;;;;;22.10;96.20;;;;;;5086544;28;20109;-12
2022/10/15 10:43:22;;;;;;;;;;;22.00;96.50;;;;;;5089988;28;19908;-11
2022/10/15 10:45:59;;;;;;;;;;;21.90;96.80;;;;;;5092823;28;20182;-12
2022/10/15 10:48:26;;;;;;;;;;;21.80;97.00;;;;;;5088282;28;19934;-10
2022/10/15 10:51:06;;;;;;;;;;;21.80;97.40;;;;;;5087818;28;20063;-11
2022/10/15 10:53:36;;;;;;;;;;;21.80;97.10;;;;;;5093983;28;19920;-11
2022/10/15 10:56:03;;;;;;;;;;;21.80;97.30;;;;;;5093379;28;20368;-11
2022/10/15 10:58:32;;;;;;;;;;;21.70;97.40;;;;;;5085673;28;20202;-10
2022/10/15 11:00:57;;;;;;;;;;;21.60;97.70;;;;;;5087569;28;19981;-11
2022/10/15 11:03:36;;;;;;;;;;;21.50;98.00;;;;;;5087329;28;19908;-11
2022/10/15 11:06:08;;;;;;;;;;;21.50;98.10;;;;;;5086864;28;20354;-10
2022/10/15 11:08:33;;;;;;;;;;;21.40;98.50;;;;;;5084597;28;20060;-11
2022/10/15 11:11:06;;;;;;;;;;;21.40;98.60;;;;;;5085024;28;19920;-11
2022/10/15 11:13:50;;;;;;;;;;;21.30;98.80;;;;;;5087241;28;19916;-11
2022/10/15 11:16:32;;;;;;;;;;;21.20;99.10;;;;;;5084343;28;19908;-11
2022/10/15 11:19:07;;;;;;;;;;;21.20;99.60;;;;;;5083970;28;19912;-10
2022/10/15 11:21:47;;;;;;;;;;;21.20;99.60;;;;;;5087898;28;19908;-12
2022/10/15 11:24:19;;;;;;;;;;;21.20;99.60;;;;;;5086264;28;19908;-11
2022/10/15 11:27:11;;;;;;;;;;;21.30;99.40;;;;;;5086653;28;20321;-11
2022/10/15 11:29:55;;;;;;;;;;;21.30;99.30;;;;;;5085599;28;20658;-11
2022/10/15 11:32:31;;;;;;;;;;;21.40;99.10;;;;;;5086253;28;19923;-11
2022/10/15 11:35:10;;;;;;;;;;;21.50;99.30;;;;;;5084603;28;20223;-12
2022/10/15 11:37:48;;;;;;;;;;;21.50;99.10;;;;;;5086096;28;20015;-12
2022/10/15 11:40:19;;;;;;;;;;;21.50;99.00;;;;;;5088220;28;20233;-11
2022/10/15 11:42:45;;;;;;;;;;;21.50;98.90;;;;;;5088659;28;19908;-11
2022/10/15 11:45:24;;;;;;;;;;;21.50;99.20;;;;;;5088664;28;19931;-11
2022/10/15 11:47:56;;;;;;;;;;;21.50;99.50;;;;;;5086370;28;19912;-12
2022/10/15 11:50:25;;;;;;;;;;;21.40;99.40;;;;;;5088978;28;20264;-11
2022/10/15 11:52:51;;;;;;;;;;;21.40;99.70;;;;;;5088368;28;19934;-12
2022/10/15 11:55:19;;;;;;;;;;;21.30;99.70;;;;;;5086343;28;19968;-11
2022/10/15 11:57:47;;;;;;;;;;;21.40;99.70;;;;;;5087671;28;20023;-11
2022/10/15 12:00:22;;;;;;;;;;;21.40;99.70;;;;;;5087023;28;19954;-10
2022/10/15 12:02:48;;;;;;;;;;;21.40;99.60;;;;;;5085074;28;20296;-10
2022/10/15 12:05:29;;;;;;;;;;;21.40;99.60;;;;;;5086509;28;19916;-11
2022/10/15 12:07:55;;;;;;;;;;;21.40;99.60;;;;;;5087408;28;20035;-11
2022/10/15 12:10:39;;;;;;;;;;;21.30;99.60;;;;;;5086267;28;19934;-10
2022/10/15 12:13:05;;;;;;;;;;;21.30;99.80;;;;;;5084291;28;19908;-10
2022/10/15 12:15:54;;;;;;;;;;;21.30;99.90;;;;;;5083180;28;19908;-11
2022/10/15 12:18:27;;;;;;;;;;;21.30;99.90;;;;;;5083323;28;20135;-11
2022/10/15 12:20:57;;;;;;;;;;;21.20;99.90;;;;;;5091228;28;19908;-11
2022/10/15 12:23:43;;;;;;;;;;;21.20;99.90;;;;;;5086741;28;19918;-11
2022/10/15 12:26:24;;;;;;;;;;;21.20;99.90;;;;;;5082429;28;20217;-11
2022/10/15 12:28:51;;;;;;;;;;;21.10;99.90;;;;;;5086012;28;19916;-11
2022/10/15 12:31:20;;;;;;;;;;;21.10;99.90;;;;;;5092570;28;19908;-12
2022/10/15 12:33:53;;;;;;;;;;;21.00;99.90;;;;;;5094588;28;20220;-10
2022/10/15 12:36:29;;;;;;;;;;;21.00;99.90;;;;;;5090799;28;19908;-10
2022/10/15 12:39:20;;;;;;;;;;;21.00;99.90;;;;;;5088210;28;19924;-11
2022/10/15 12:41:46;;;;;;;;;;;21.00;99.90;;;;;;5087145;28;20032;-11
2022/10/15 12:44:32;;;;;;;;;;;21.00;99.90;;;;;;5085920;28;20193;-11
2022/10/15 12:46:58;;;;;;;;;;;21.00;99.90;;;;;;5083778;28;20237;-10
2022/10/15 12:49:30;;;;;;;;;;;21.00;99.90;;;;;;5086185;28;20081;-11
2022/10/15 12:52:00;;;;;;;;;;;21.00;99.90;;;;;;5085498;28;19919;-11
2022/10/15 12:54:32;;;;;;;;;;;21.00;99.90;;;;;;5085500;28;20220;-10
2022/10/15 13:00:01;;;;;;;;;;;21.00;99.90;;;;;;5084285;28;20280;-10
2022/10/15 13:02:40;;;;;;;;;;;21.10;99.90;;;;;;5094244;28;19908;-11
2022/10/15 13:05:08;;;;;;;;;;;21.00;99.90;;;;;;5092804;28;19962;-11
2022/10/15 13:07:36;;;;;;;;;;;21.10;99.90;;;;;;5094155;28;20011;-12
2022/10/15 13:10:02;;;;;;;;;;;21.00;99.90;;;;;;5093812;28;19908;-11
2022/10/15 13:12:28;;;;;;;;;;;21.10;99.90;;;;;;5094142;28;19912;-11
2022/10/15 13:14:56;;;;;;;;;;;21.00;99.90;;;;;;5094230;28;20010;-11
2022/10/15 13:17:22;;;;;;;;;;;21.00;99.90;;;;;;5092885;28;19923;-11
2022/10/15 13:20:06;;;;;;;;;;;21.00;99.90;;;;;;5094549;28;19908;-10
2022/10/15 13:22:41;;;;;;;;;;;21.00;99.90;;;;;;5095304;28;19972;-12
2022/10/15 13:25:16;;;;;;;;;;;21.00;99.90;;;;;;5095181;28;19908;-11
2022/10/15 13:27:42;;;;;;;;;;;21.00;99.90;;;;;;5092735;28;19964;-11
2022/10/15 13:30:12;;;;;;;;;;;21.00;99.90;;;;;;5076643;28;20323;-10
2022/10/15 13:32:41;;;;;;;;;;;21.00;99.90;;;;;;5095114;28;19923;-11
2022/10/15 13:35:12;;;;;;;;;;;21.00;99.90;;;;;;5094310;28;19915;-12
2022/10/15 13:37:39;;;;;;;;;;;21.00;99.90;;;;;;5093290;28;20435;-12
2022/10/15 13:40:05;;;;;;;;;;;21.00;99.90;;;;;;5094404;28;19937;-12
2022/10/15 13:42:31;;;;;;;;;;;21.00;99.90;;;;;;5094201;28;20277;-11
2022/10/15 13:45:00;;;;;;;;;;;21.00;99.90;;;;;;5093730;28;20352;-10
2022/10/15 13:47:28;;;;;;;;;;;21.00;99.90;;;;;;5093143;28;19942;-11
2022/10/15 13:50:29;;;;;;;;;;;21.00;99.90;;;;;;5093809;28;19999;-10
2022/10/15 13:53:10;;;;;;;;;;;21.00;99.90;;;;;;5031442;28;19913;-10
2022/10/15 13:55:38;;;;;;;;;;;21.00;99.90;;;;;;5087876;28;19951;-11
2022/10/15 13:58:12;;;;;;;;;;;21.00;99.90;;;;;;5093105;28;19923;-11
2022/10/15 14:00:38;;;;;;;;;;;21.00;99.90;;;;;;5094437;28;19936;-10
2022/10/15 14:03:08;;;;;;;;;;;21.00;99.90;;;;;;5097277;28;19951;-12
2022/10/15 14:05:33;;;;;;;;;;;21.00;99.90;;;;;;5097822;28;20015;-11
2022/10/15 14:08:00;;;;;;;;;;;21.00;99.90;;;;;;5095712;28;20007;-10
2022/10/15 14:10:26;;;;;;;;;;;21.00;99.90;;;;;;5095862;28;19908;-10
2022/10/15 14:12:52;;;;;;;;;;;21.00;99.90;;;;;;5096205;28;19908;-11
2022/10/15 14:15:36;;;;;;;;;;;21.00;99.90;;;;;;5096874;28;19908;-11
2022/10/15 14:18:01;;;;;;;;;;;21.00;99.90;;;;;;5095135;28;19985;-10
2022/10/15 14:20:27;;;;;;;;;;;21.00;99.90;;;;;;5096493;28;20227;-12
2022/10/15 14:22:53;;;;;;;;;;;21.00;99.90;;;;;;5096995;28;19908;-11
2022/10/15 14:25:23;;;;;;;;;;;20.90;99.90;;;;;;5097400;28;20089;-12
2022/10/15 14:27:51;;;;;;;;;;;20.90;99.90;;;;;;5093014;28;20456;-11
2022/10/15 14:30:24;;;;;;;;;;;20.90;99.90;;;;;;5095608;28;19919;-11
2022/10/15 14:32:51;;;;;;;;;;;20.80;99.90;;;;;;5095307;28;19977;-10